createdAt,value
2019-01-04T00:01:58.105Z,8.17
2019-01-04T00:04:26.947Z,7.60
2019-01-04T00:06:55.424Z,7.90
2019-01-04T00:09:24.111Z,8.37
2019-01-04T00:11:53.321Z,7.87
2019-01-04T00:14:21.893Z,8.40
2019-01-04T00:16:50.628Z,8.67
2019-01-04T00:19:19.842Z,8.50
2019-01-04T00:21:48.562Z,7.63
2019-01-04T00:24:17.268Z,8.50
2019-01-04T00:26:46.109Z,7.70
2019-01-04T00:29:14.863Z,9.63
2019-01-04T00:31:43.328Z,29.93
2019-01-04T00:34:12.007Z,8.73
2019-01-04T00:36:40.821Z,7.13
2019-01-04T00:39:09.265Z,8.20
2019-01-04T00:41:38.115Z,8.20
2019-01-04T00:44:06.776Z,8.53
2019-01-04T00:46:35.616Z,8.20
2019-01-04T00:49:04.156Z,8.50
2019-01-04T00:51:32.900Z,8.60
2019-01-04T00:54:01.740Z,8.70
2019-01-04T00:56:36.298Z,9.27
2019-01-04T00:59:19.581Z,9.33
2019-01-04T01:02:14.157Z,8.60
2019-01-04T01:05:02.553Z,14.10
2019-01-04T01:07:45.616Z,9.60
2019-01-04T01:10:36.233Z,9.80
2019-01-04T01:13:31.935Z,9.17
2019-01-04T01:16:15.356Z,8.70
2019-01-04T01:18:49.990Z,9.40
2019-01-04T01:21:30.469Z,13.77
2019-01-04T01:24:10.867Z,9.90
2019-01-04T01:27:14.545Z,9.57
2019-01-04T01:30:11.711Z,9.87
2019-01-04T01:32:49.291Z,8.87
2019-01-04T01:35:32.751Z,10.37
2019-01-04T01:38:10.157Z,11.13
2019-01-04T01:41:14.977Z,9.27
2019-01-04T01:44:00.981Z,12.03
2019-01-04T01:46:41.731Z,14.77
2019-01-04T01:49:42.237Z,15.80
2019-01-04T01:52:16.504Z,15.00
2019-01-04T01:54:45.301Z,13.20
2019-01-04T01:57:13.983Z,14.13
2019-01-04T01:59:42.693Z,15.30
2019-01-04T02:02:13.373Z,13.37
2019-01-04T02:04:42.016Z,13.00
2019-01-04T02:07:10.735Z,13.80
2019-01-04T02:09:39.439Z,13.67
2019-01-04T02:12:08.141Z,15.73
2019-01-04T02:14:36.552Z,16.27
2019-01-04T02:17:05.359Z,17.50
2019-01-04T02:19:33.816Z,17.97
2019-01-04T02:22:02.223Z,19.23
2019-01-04T02:24:30.952Z,20.27
2019-01-04T02:26:59.673Z,19.17
2019-01-04T02:29:28.395Z,19.30
2019-01-04T02:31:57.245Z,23.07
2019-01-04T02:34:25.970Z,22.30
2019-01-04T02:36:54.650Z,26.03
2019-01-04T02:39:23.087Z,26.97
2019-01-04T02:41:51.826Z,26.83
2019-01-04T02:44:21.075Z,28.47
2019-01-04T02:46:49.510Z,26.40
2019-01-04T02:49:18.252Z,28.97
2019-01-04T02:51:46.692Z,26.10
2019-01-04T02:54:15.412Z,26.80
2019-01-04T02:56:44.132Z,28.43
2019-01-04T02:59:12.853Z,29.67
2019-01-04T03:01:41.583Z,28.63
2019-01-04T03:04:10.378Z,30.77
2019-01-04T03:06:38.865Z,28.43
2019-01-04T03:09:07.950Z,31.40
2019-01-04T03:11:37.998Z,30.17
2019-01-04T03:14:06.739Z,33.17
2019-01-04T03:16:35.447Z,31.60
2019-01-04T03:19:04.117Z,30.30
2019-01-04T03:21:32.545Z,34.50
2019-01-04T03:24:00.961Z,30.67
2019-01-04T03:26:29.466Z,32.30
2019-01-04T03:28:58.158Z,30.83
2019-01-04T03:31:26.581Z,31.10
2019-01-04T03:33:55.071Z,30.60
2019-01-04T03:36:23.766Z,31.00
2019-01-04T03:38:52.168Z,31.30
2019-01-04T03:41:20.873Z,31.60
2019-01-04T03:43:49.304Z,34.00
2019-01-04T03:46:17.760Z,32.33
2019-01-04T03:48:46.436Z,31.77
2019-01-04T03:51:14.839Z,32.60
2019-01-04T03:53:43.540Z,33.27
2019-01-04T03:56:12.327Z,34.97
2019-01-04T03:58:40.991Z,34.90
2019-01-04T04:01:09.759Z,33.67
2019-01-04T04:03:38.199Z,29.57
2019-01-04T04:06:06.969Z,29.13
2019-01-04T04:08:35.651Z,29.80
2019-01-04T04:11:04.352Z,26.70
2019-01-04T04:13:32.786Z,24.87
2019-01-04T04:16:01.464Z,25.30
2019-01-04T04:18:29.882Z,25.87
2019-01-04T04:20:58.592Z,24.90
2019-01-04T04:23:27.369Z,26.50
2019-01-04T04:25:57.208Z,25.07
2019-01-04T04:28:25.700Z,26.27
2019-01-04T04:30:54.395Z,26.27
2019-01-04T04:33:22.822Z,25.33
2019-01-04T04:35:51.517Z,25.07
2019-01-04T04:38:20.211Z,27.10
2019-01-04T04:40:48.702Z,25.50
2019-01-04T04:43:17.126Z,25.57
2019-01-04T04:45:45.547Z,22.80
2019-01-04T04:48:14.232Z,24.23
2019-01-04T04:50:42.664Z,21.50
2019-01-04T04:53:11.078Z,22.00
2019-01-04T04:55:39.791Z,22.00
2019-01-04T04:58:08.626Z,18.83
2019-01-04T05:00:37.380Z,19.93
2019-01-04T05:03:05.775Z,18.60
2019-01-04T05:05:34.457Z,21.17
2019-01-04T05:08:03.182Z,21.40
2019-01-04T05:10:31.821Z,21.57
2019-01-04T05:13:00.525Z,19.90
2019-01-04T05:15:29.216Z,19.73
2019-01-04T05:17:57.989Z,19.10
2019-01-04T05:20:26.674Z,17.27
2019-01-04T05:22:55.099Z,17.27
2019-01-04T05:25:23.841Z,17.37
2019-01-04T05:27:52.568Z,17.30
2019-01-04T05:30:21.234Z,14.67
2019-01-04T05:32:49.894Z,15.80
2019-01-04T05:35:19.679Z,14.50
2019-01-04T05:37:48.172Z,14.57
2019-01-04T05:40:16.846Z,14.27
2019-01-04T05:42:45.564Z,13.80
2019-01-04T05:45:13.986Z,14.73
2019-01-04T05:47:42.418Z,13.93
2019-01-04T05:50:11.131Z,12.80
2019-01-04T05:52:39.858Z,14.40
2019-01-04T05:55:08.626Z,13.90
2019-01-04T05:57:37.345Z,13.10
2019-01-04T06:00:09.242Z,12.40
2019-01-04T06:02:37.923Z,12.60
2019-01-04T06:05:06.604Z,12.70
2019-01-04T06:07:35.384Z,13.00
2019-01-04T06:10:05.186Z,13.50
2019-01-04T06:12:33.897Z,13.20
2019-01-04T06:15:02.669Z,12.00
2019-01-04T06:17:31.383Z,12.57
2019-01-04T06:20:00.140Z,14.77
2019-01-04T06:22:28.586Z,13.00
2019-01-04T06:24:57.257Z,13.97
2019-01-04T06:27:26.020Z,12.93
2019-01-04T06:29:54.690Z,13.40
2019-01-04T06:32:23.112Z,13.57
2019-01-04T06:34:51.603Z,14.07
2019-01-04T06:37:20.287Z,15.10
2019-01-04T06:39:49.134Z,15.23
2019-01-04T06:42:17.814Z,14.70
2019-01-04T06:44:46.500Z,14.30
2019-01-04T06:47:16.809Z,14.20
2019-01-04T06:49:45.658Z,14.10
2019-01-04T06:52:14.349Z,14.10
2019-01-04T06:55:17.852Z,13.67
2019-01-04T06:57:46.576Z,13.77
2019-01-04T07:00:15.318Z,13.80
2019-01-04T07:02:43.889Z,14.50
2019-01-04T07:05:12.322Z,13.40
2019-01-04T07:07:41.031Z,13.23
2019-01-04T07:10:10.274Z,13.43
2019-01-04T07:12:38.678Z,12.03
2019-01-04T07:15:07.846Z,13.50
2019-01-04T07:17:36.522Z,14.50
2019-01-04T07:20:06.163Z,12.53
2019-01-04T07:22:34.868Z,12.83
2019-01-04T07:25:03.542Z,14.20
2019-01-04T07:27:31.975Z,13.13
2019-01-04T07:30:00.437Z,15.60
2019-01-04T07:32:28.827Z,12.80
2019-01-04T07:34:57.317Z,20.50
2019-01-04T07:37:26.131Z,13.93
2019-01-04T07:39:54.545Z,13.07
2019-01-04T07:42:22.973Z,11.93
2019-01-04T07:44:51.669Z,12.23
2019-01-04T07:47:20.355Z,11.93
2019-01-04T07:49:49.078Z,12.70
2019-01-04T07:52:18.239Z,10.90
2019-01-04T07:54:47.012Z,12.20
2019-01-04T07:57:15.779Z,10.80
2019-01-04T07:59:44.458Z,11.40
2019-01-04T08:02:37.221Z,10.90
2019-01-04T08:05:09.280Z,13.80
2019-01-04T08:07:37.991Z,12.80
2019-01-04T08:10:07.829Z,11.50
2019-01-04T08:12:39.447Z,10.43
2019-01-04T08:15:10.017Z,11.30
2019-01-04T08:17:38.694Z,11.03
2019-01-04T08:20:09.953Z,11.00
2019-01-04T08:22:38.741Z,11.20
2019-01-04T08:25:08.596Z,10.80
2019-01-04T08:27:37.092Z,10.50
2019-01-04T08:30:09.207Z,9.60
2019-01-04T08:32:37.884Z,10.13
2019-01-04T08:35:07.865Z,10.10
2019-01-04T08:37:36.553Z,11.10
2019-01-04T08:40:07.824Z,12.17
2019-01-04T08:42:37.416Z,11.83
2019-01-04T08:45:07.762Z,11.23
2019-01-04T08:47:36.467Z,10.60
2019-01-04T08:50:07.795Z,12.50
2019-01-04T08:52:36.509Z,13.57
2019-01-04T08:55:07.752Z,13.70
2019-01-04T08:57:36.433Z,14.50
2019-01-04T09:00:07.953Z,14.73
2019-01-04T09:02:36.378Z,16.00
2019-01-04T09:05:05.835Z,18.83
2019-01-04T09:07:34.591Z,16.60
2019-01-04T09:10:03.673Z,17.87
2019-01-04T09:12:32.409Z,16.93
2019-01-04T09:15:01.108Z,17.40
2019-01-04T09:17:29.814Z,18.80
2019-01-04T09:19:58.588Z,17.50
2019-01-04T09:22:27.410Z,17.60
2019-01-04T09:24:55.837Z,16.23
2019-01-04T09:27:24.670Z,16.40
2019-01-04T09:29:53.087Z,16.47
2019-01-04T09:32:21.786Z,16.57
2019-01-04T09:34:50.275Z,15.97
2019-01-04T09:37:19.141Z,16.37
2019-01-04T09:39:47.852Z,16.13
2019-01-04T09:42:16.621Z,16.30
2019-01-04T09:44:45.298Z,15.80
2019-01-04T09:47:13.980Z,16.47
2019-01-04T09:49:42.571Z,16.60
2019-01-04T09:52:11.400Z,16.63
2019-01-04T09:54:40.141Z,16.63
2019-01-04T09:57:08.953Z,17.67
2019-01-04T09:59:37.461Z,18.97
2019-01-04T10:02:06.365Z,18.93
2019-01-04T10:04:35.040Z,18.33
2019-01-04T10:07:03.718Z,18.70
2019-01-04T10:09:32.160Z,20.50
2019-01-04T10:12:02.541Z,20.37
2019-01-04T10:14:31.338Z,20.67
2019-01-04T10:16:59.727Z,20.87
2019-01-04T10:19:28.217Z,20.10
2019-01-04T10:21:56.921Z,21.47
2019-01-04T10:24:25.745Z,20.20
2019-01-04T10:26:54.166Z,20.50
2019-01-04T10:29:22.939Z,21.50
2019-01-04T10:31:51.744Z,20.80
2019-01-04T10:34:20.511Z,19.13
2019-01-04T10:36:49.198Z,20.40
2019-01-04T10:39:17.900Z,19.00
2019-01-04T10:41:46.592Z,19.00
2019-01-04T10:44:15.055Z,19.50
2019-01-04T10:46:43.759Z,19.93
2019-01-04T10:49:12.654Z,42.60
2019-01-04T10:51:42.576Z,21.10
2019-01-04T10:54:11.270Z,20.30
2019-01-04T10:56:40.500Z,19.63
2019-01-04T10:59:09.019Z,19.50
2019-01-04T11:01:37.774Z,18.20
2019-01-04T11:04:06.198Z,18.13
2019-01-04T11:06:34.964Z,20.37
2019-01-04T11:09:04.958Z,18.33
2019-01-04T11:11:33.661Z,19.13
2019-01-04T11:14:02.057Z,18.83
2019-01-04T11:16:30.766Z,17.70
2019-01-04T11:18:59.454Z,17.60
2019-01-04T11:21:28.143Z,16.80
2019-01-04T11:24:05.625Z,16.20
2019-01-04T11:26:40.753Z,16.57
2019-01-04T11:29:18.074Z,16.20
2019-01-04T11:31:58.770Z,15.00
2019-01-04T11:34:33.637Z,14.30
2019-01-04T11:37:23.522Z,14.73
2019-01-04T11:40:17.248Z,14.73
2019-01-04T11:42:51.738Z,14.50
2019-01-04T11:45:23.524Z,14.57
2019-01-04T11:48:11.297Z,13.00
2019-01-04T11:50:42.786Z,11.13
2019-01-04T11:53:14.568Z,12.17
2019-01-04T11:55:42.974Z,12.17
2019-01-04T11:58:11.690Z,12.73
2019-01-04T12:00:40.247Z,13.10
2019-01-04T12:03:08.980Z,12.87
2019-01-04T12:05:37.680Z,12.47
2019-01-04T12:08:06.350Z,12.40
2019-01-04T12:10:35.060Z,12.20
2019-01-04T12:13:03.823Z,13.60
2019-01-04T12:15:32.526Z,13.97
2019-01-04T12:18:01.298Z,14.40
2019-01-04T12:20:29.710Z,14.10
2019-01-04T12:22:58.488Z,13.73
2019-01-04T12:25:26.934Z,14.50
2019-01-04T12:27:55.600Z,15.10
2019-01-04T12:30:24.281Z,15.00
2019-01-04T12:32:52.994Z,13.60
2019-01-04T12:35:21.687Z,14.70
2019-01-04T12:37:50.346Z,15.60
2019-01-04T12:40:19.068Z,15.43
2019-01-04T12:42:47.743Z,15.37
2019-01-04T12:45:16.448Z,15.90
2019-01-04T12:47:44.905Z,16.90
2019-01-04T12:50:13.368Z,18.10
2019-01-04T12:52:42.095Z,17.97
2019-01-04T12:55:10.782Z,16.83
2019-01-04T12:57:39.507Z,17.27
2019-01-04T13:00:11.201Z,19.10
2019-01-04T13:02:39.914Z,17.93
2019-01-04T13:05:08.746Z,21.10
2019-01-04T13:07:37.294Z,18.77
2019-01-04T13:10:06.440Z,19.50
2019-01-04T13:12:35.145Z,20.83
2019-01-04T13:15:04.560Z,19.17
2019-01-04T13:17:33.304Z,20.97
2019-01-04T13:20:02.188Z,20.93
2019-01-04T13:22:30.951Z,22.37
2019-01-04T13:24:59.385Z,21.87
2019-01-04T13:27:28.133Z,22.70
2019-01-04T13:29:56.610Z,24.00
2019-01-04T13:32:25.030Z,22.87
2019-01-04T13:34:53.489Z,22.03
2019-01-04T13:37:22.264Z,24.27
2019-01-04T13:39:50.971Z,23.80
2019-01-04T13:42:19.704Z,29.00
2019-01-04T13:44:48.469Z,23.53
2019-01-04T13:47:17.260Z,25.10
2019-01-04T13:49:45.975Z,24.73
2019-01-04T13:52:14.661Z,26.70
2019-01-04T13:54:43.180Z,25.47
2019-01-04T13:57:11.882Z,23.53
2019-01-04T13:59:40.686Z,25.33
2019-01-04T14:02:09.119Z,24.27
2019-01-04T14:04:37.816Z,26.33
2019-01-04T14:07:06.660Z,27.03
2019-01-04T14:09:35.350Z,26.17
2019-01-04T14:12:04.073Z,27.23
2019-01-04T14:14:32.855Z,29.70
2019-01-04T14:17:01.661Z,27.53
2019-01-04T14:19:30.407Z,26.70
2019-01-04T14:21:59.211Z,27.67
2019-01-04T14:24:28.115Z,27.83
2019-01-04T14:26:56.774Z,25.93
2019-01-04T14:29:26.397Z,26.77
2019-01-04T14:31:54.862Z,27.13
2019-01-04T14:34:23.569Z,26.47
2019-01-04T14:36:52.266Z,25.10
2019-01-04T14:39:21.031Z,26.10
2019-01-04T14:41:49.765Z,26.80
2019-01-04T14:44:18.192Z,24.77
2019-01-04T14:46:46.621Z,24.37
2019-01-04T14:49:16.392Z,26.40
2019-01-04T14:51:45.152Z,26.87
2019-01-04T14:54:13.875Z,26.90
2019-01-04T14:56:42.548Z,28.30
2019-01-04T14:59:11.266Z,25.50
2019-01-04T15:01:39.965Z,28.63
2019-01-04T15:04:08.446Z,28.47
2019-01-04T15:06:37.095Z,26.37
2019-01-04T15:09:07.463Z,26.07
2019-01-04T15:11:36.136Z,28.83
2019-01-04T15:14:04.873Z,27.17
2019-01-04T15:16:33.637Z,27.73
2019-01-04T15:19:02.063Z,28.63
2019-01-04T15:21:30.767Z,25.80
2019-01-04T15:23:59.500Z,28.97
2019-01-04T15:26:28.281Z,28.03
2019-01-04T15:28:56.946Z,28.20
2019-01-04T15:31:25.631Z,28.10
2019-01-04T15:33:54.351Z,29.30
2019-01-04T15:36:23.061Z,28.10
2019-01-04T15:38:51.770Z,30.10
2019-01-04T15:41:20.186Z,30.03
2019-01-04T15:43:48.891Z,29.53
2019-01-04T15:46:17.579Z,29.60
2019-01-04T15:48:46.314Z,29.97
2019-01-04T15:51:15.075Z,30.80
2019-01-04T15:53:43.866Z,31.57
2019-01-04T15:56:12.667Z,32.30
2019-01-04T15:58:41.467Z,30.00
2019-01-04T16:01:10.154Z,31.90
2019-01-04T16:03:38.589Z,32.17
2019-01-04T16:06:07.283Z,34.03
2019-01-04T16:08:36.066Z,34.53
2019-01-04T16:11:04.851Z,34.93
2019-01-04T16:13:33.539Z,35.40
2019-01-04T16:16:02.863Z,37.23
2019-01-04T16:18:31.352Z,37.57
2019-01-04T16:21:00.071Z,38.10
2019-01-04T16:23:28.510Z,39.20
2019-01-04T16:25:57.006Z,42.30
2019-01-04T16:28:25.723Z,38.37
2019-01-04T16:30:54.408Z,42.53
2019-01-04T16:33:23.647Z,41.83
2019-01-04T16:35:52.059Z,40.30
2019-01-04T16:38:20.758Z,41.53
2019-01-04T16:40:49.275Z,41.87
2019-01-04T16:43:17.992Z,45.23
2019-01-04T16:45:46.964Z,46.17
2019-01-04T16:48:15.746Z,45.50
2019-01-04T16:50:47.573Z,45.60
2019-01-04T16:53:16.249Z,45.70
2019-01-04T16:55:46.438Z,45.93
2019-01-04T16:58:15.245Z,49.37
2019-01-04T17:00:44.351Z,46.03
2019-01-04T17:03:12.775Z,46.17
2019-01-04T17:05:42.421Z,45.50
2019-01-04T17:08:10.887Z,49.27
2019-01-04T17:10:39.360Z,46.97
2019-01-04T17:13:08.033Z,48.60
2019-01-04T17:15:36.733Z,47.90
2019-01-04T17:18:05.483Z,50.20
2019-01-04T17:20:34.194Z,50.03
2019-01-04T17:23:02.894Z,47.60
2019-01-04T17:25:32.724Z,52.30
2019-01-04T17:28:01.226Z,52.37
2019-01-04T17:30:29.909Z,51.20
2019-01-04T17:33:01.525Z,49.07
2019-01-04T17:35:30.000Z,51.37
2019-01-04T17:37:58.415Z,50.20
2019-01-04T17:40:27.082Z,51.20
2019-01-04T17:42:55.798Z,50.97
2019-01-04T17:45:24.479Z,49.77
2019-01-04T17:47:53.245Z,46.37
2019-01-04T17:50:21.923Z,51.43
2019-01-04T17:52:50.606Z,50.07
2019-01-04T17:55:19.397Z,49.53
2019-01-04T17:57:48.202Z,49.27
2019-01-04T18:00:16.693Z,47.83
2019-01-04T18:02:45.435Z,50.93
2019-01-04T18:05:14.251Z,51.37
2019-01-04T18:07:42.943Z,48.60
2019-01-04T18:10:11.688Z,49.37
2019-01-04T18:12:40.424Z,50.50
2019-01-04T18:15:09.334Z,51.83
2019-01-04T18:17:38.039Z,51.70
2019-01-04T18:20:11.006Z,49.10
2019-01-04T18:22:38.740Z,54.40
2019-01-04T18:25:07.319Z,53.60
2019-01-04T18:27:36.031Z,53.53
2019-01-04T18:30:07.234Z,51.73
2019-01-04T18:32:35.707Z,50.47
2019-01-04T18:35:04.316Z,52.33
2019-01-04T18:37:33.016Z,53.00
2019-01-04T18:40:01.470Z,52.33
2019-01-04T18:42:29.927Z,51.10
2019-01-04T18:44:58.705Z,52.80
2019-01-04T18:47:27.367Z,49.80
2019-01-04T18:49:56.073Z,50.07
2019-01-04T18:52:24.826Z,50.43
2019-01-04T18:54:53.674Z,53.37
2019-01-04T18:57:22.538Z,48.27
2019-01-04T18:59:53.657Z,50.37
2019-01-04T19:02:22.376Z,51.30
2019-01-04T19:04:50.865Z,50.80
2019-01-04T19:07:19.551Z,49.10
2019-01-04T19:09:48.024Z,46.67
2019-01-04T19:12:16.460Z,49.80
2019-01-04T19:14:45.150Z,50.60
2019-01-04T19:17:13.672Z,51.37
2019-01-04T19:19:42.381Z,55.23
2019-01-04T19:22:11.153Z,48.83
2019-01-04T19:24:39.864Z,48.30
2019-01-04T19:27:08.634Z,49.43
2019-01-04T19:29:37.144Z,54.40
2019-01-04T19:32:05.587Z,52.03
2019-01-04T19:34:34.135Z,49.40
2019-01-04T19:37:04.329Z,50.47
2019-01-04T19:39:33.031Z,47.20
2019-01-04T19:42:01.719Z,50.73
2019-01-04T19:44:30.406Z,50.40
2019-01-04T19:46:59.136Z,47.63
2019-01-04T19:49:27.898Z,50.20
2019-01-04T19:51:57.976Z,49.93
2019-01-04T19:54:26.690Z,45.57
2019-01-04T19:56:55.466Z,49.30
2019-01-04T19:59:24.159Z,47.13
2019-01-04T20:01:52.584Z,46.90
2019-01-04T20:04:21.400Z,48.57
2019-01-04T20:07:20.152Z,49.70
2019-01-04T20:10:26.707Z,47.80
2019-01-04T20:13:12.374Z,46.67
2019-01-04T20:16:15.839Z,45.80
2019-01-04T20:18:48.721Z,47.10
2019-01-04T20:21:27.775Z,47.77
2019-01-04T20:24:01.139Z,44.43
2019-01-04T20:26:47.364Z,92.80
2019-01-04T20:29:20.677Z,47.83
2019-01-04T20:32:00.101Z,44.70
2019-01-04T20:34:45.403Z,44.40
2019-01-04T20:37:30.756Z,41.17
2019-01-04T20:40:06.883Z,42.50
2019-01-04T20:42:53.716Z,40.17
2019-01-04T20:45:24.045Z,41.40
2019-01-04T20:47:54.119Z,42.27
2019-01-04T20:50:30.387Z,42.40
2019-01-04T20:53:04.002Z,40.50
2019-01-04T20:55:34.086Z,37.83
2019-01-04T20:58:16.046Z,42.60
2019-01-04T21:00:52.070Z,41.50
2019-01-04T21:03:39.988Z,39.90
2019-01-04T21:06:18.879Z,41.97
2019-01-04T21:08:51.937Z,40.33
2019-01-04T21:11:27.520Z,47.27
2019-01-04T21:14:14.300Z,40.03
2019-01-04T21:16:59.661Z,43.60
2019-01-04T21:19:39.130Z,43.33
2019-01-04T21:22:18.766Z,38.87
2019-01-04T21:25:00.867Z,37.20
2019-01-04T21:27:32.394Z,37.50
2019-01-04T21:30:08.430Z,38.90
2019-01-04T21:32:41.223Z,39.30
2019-01-04T21:35:11.388Z,38.03
2019-01-04T21:37:44.758Z,37.53
2019-01-04T21:40:23.831Z,37.00
2019-01-04T21:42:59.948Z,38.00
2019-01-04T21:45:45.309Z,37.53
2019-01-04T21:48:15.673Z,36.13
2019-01-04T21:50:46.046Z,37.03
2019-01-04T21:53:19.496Z,50.97
2019-01-04T21:56:01.744Z,37.60
2019-01-04T21:58:49.202Z,37.70
2019-01-04T22:01:28.119Z,40.80
2019-01-04T22:04:13.645Z,40.60
2019-01-04T22:06:44.051Z,37.60
2019-01-04T22:09:15.323Z,45.17
2019-01-04T22:12:01.035Z,39.80
2019-01-04T22:14:40.047Z,39.57
2019-01-04T22:17:10.401Z,39.27
2019-01-04T22:19:43.457Z,39.93
2019-01-04T22:22:13.541Z,41.40
2019-01-04T22:24:59.971Z,40.63
2019-01-04T22:27:39.282Z,43.27
2019-01-04T22:30:15.939Z,39.40
2019-01-04T22:32:58.671Z,41.90
2019-01-04T22:35:40.876Z,42.10
2019-01-04T22:38:23.470Z,45.77
2019-01-04T22:40:56.472Z,43.70
2019-01-04T22:43:32.536Z,45.10
2019-01-04T22:46:15.155Z,45.67
2019-01-04T22:49:03.613Z,43.77
2019-01-04T22:51:50.093Z,41.83
2019-01-04T22:54:29.531Z,40.00
2019-01-04T22:57:15.956Z,40.10
2019-01-04T23:00:01.049Z,38.13
2019-01-04T23:02:47.643Z,38.53
2019-01-04T23:05:17.787Z,39.03
2019-01-04T23:08:03.776Z,38.13
2019-01-04T23:10:42.685Z,39.80
2019-01-04T23:13:28.867Z,40.37
2019-01-04T23:15:59.249Z,44.10
2019-01-04T23:18:29.356Z,47.60
2019-01-04T23:21:14.525Z,52.87
2019-01-04T23:23:44.866Z,52.37
2019-01-04T23:26:19.574Z,47.87
2019-01-04T23:28:49.766Z,43.30
2019-01-04T23:31:36.416Z,39.53
2019-01-04T23:34:12.538Z,40.87
2019-01-04T23:36:55.030Z,41.90
2019-01-04T23:39:25.479Z,41.83
2019-01-04T23:41:55.901Z,42.07
2019-01-04T23:44:37.927Z,41.53
2019-01-04T23:47:24.727Z,42.23
2019-01-04T23:50:04.110Z,43.03
2019-01-04T23:52:46.330Z,38.17
2019-01-04T23:55:19.255Z,41.80
2019-01-04T23:57:52.173Z,39.07
